Time;durP1;ratioP1;P1;durP2;ratioP2;P2;SDS_P1;SDS_P2;PMS_P1;PMS_P2;Temp;Humidity;BMP_temperature;BMP_pressure;BME280_temperature;BME280_humidity;BME280_pressure;Samples;Min_cycle;Max_cycle;Signal;HPM_P1;HPM_P2
2021/12/25 00:00:11;;;;;;;19.23;15.53;;;3.70;99.90;;;;;;5013214;28;20228;-76
2021/12/25 00:02:37;;;;;;;23.27;17.43;;;3.70;99.90;;;;;;4995551;28;20226;-76
2021/12/25 00:05:04;;;;;;;22.20;16.73;;;3.70;99.90;;;;;;5013415;28;20207;-76
2021/12/25 00:07:30;;;;;;;21.83;17.33;;;3.60;99.90;;;;;;5012986;28;20197;-77
2021/12/25 00:09:57;;;;;;;23.13;17.13;;;3.70;99.90;;;;;;4995521;28;20179;-76
2021/12/25 00:12:23;;;;;;;19.77;15.43;;;3.60;99.90;;;;;;5013364;28;20196;-76
2021/12/25 00:14:49;;;;;;;22.80;16.63;;;3.60;99.90;;;;;;5004518;28;20249;-77
2021/12/25 00:17:15;;;;;;;21.60;15.67;;;3.50;99.90;;;;;;4995515;28;20678;-76
2021/12/25 00:19:40;;;;;;;18.30;15.87;;;3.60;99.90;;;;;;4995328;28;20558;-76
2021/12/25 00:22:06;;;;;;;16.70;14.80;;;3.70;99.90;;;;;;4982071;28;20654;-77
2021/12/25 00:24:32;;;;;;;17.43;14.03;;;3.70;99.90;;;;;;5009693;28;20714;-76
2021/12/25 00:27:11;;;;;;;17.33;14.83;;;3.70;99.90;;;;;;4995407;28;20177;-76
2021/12/25 00:34:46;;;;;;;21.63;15.27;;;3.50;99.90;;;;;;5015569;28;20206;-76
2021/12/25 00:37:12;;;;;;;24.27;16.43;;;3.50;99.90;;;;;;4999554;28;20201;-77
2021/12/25 00:39:37;;;;;;;24.00;17.03;;;3.50;99.90;;;;;;5016593;28;20557;-76
2021/12/25 00:42:05;;;;;;;21.47;16.60;;;3.50;99.90;;;;;;4995433;28;20183;-76
2021/12/25 00:44:32;;;;;;;20.17;15.87;;;3.50;99.90;;;;;;5016717;28;20199;-77
2021/12/25 00:46:57;;;;;;;20.97;15.47;;;3.60;99.90;;;;;;4998772;28;20230;-76
2021/12/25 00:49:24;;;;;;;19.87;15.33;;;3.70;99.90;;;;;;5016475;28;20669;-76
2021/12/25 00:51:50;;;;;;;16.87;14.47;;;3.70;99.90;;;;;;5016336;28;20207;-76
2021/12/25 00:54:16;;;;;;;18.80;15.30;;;3.70;99.90;;;;;;5016480;28;20553;-77
2021/12/25 00:56:42;;;;;;;17.13;15.20;;;3.70;99.90;;;;;;4998966;28;20214;-77
2021/12/25 00:59:07;;;;;;;18.43;15.20;;;3.80;99.90;;;;;;5016462;28;20195;-77
2021/12/25 01:01:33;;;;;;;17.27;13.63;;;3.80;99.90;;;;;;5011049;28;20636;-77
2021/12/25 01:03:59;;;;;;;19.47;14.77;;;3.80;99.90;;;;;;4991022;28;20202;-76
2021/12/25 01:06:25;;;;;;;16.73;14.23;;;3.90;99.90;;;;;;5016193;28;20631;-77
2021/12/25 01:08:50;;;;;;;18.27;15.57;;;3.80;99.90;;;;;;5016278;28;20226;-77
2021/12/25 01:11:16;;;;;;;18.80;14.67;;;4.00;99.90;;;;;;5016038;28;20221;-77
2021/12/25 01:13:52;;;;;;;17.77;14.93;;;4.00;99.90;;;;;;5015791;28;20169;-78
2021/12/25 01:24:27;;;;;;;20.73;16.50;;;3.70;99.90;;;;;;5016023;28;20522;-77
2021/12/25 01:29:49;;;;;;;19.83;16.17;;;3.60;99.90;;;;;;5016046;28;20175;-76
2021/12/25 01:37:39;;;;;;;21.67;15.83;;;3.40;99.90;;;;;;5015842;28;20564;-76
2021/12/25 01:48:15;;;;;;;21.50;16.10;;;3.50;99.90;;;;;;5015407;28;20243;-76
2021/12/25 01:50:41;;;;;;;20.73;16.53;;;3.60;99.90;;;;;;4997698;28;20191;-77
2021/12/25 01:53:06;;;;;;;22.73;15.93;;;3.50;99.90;;;;;;5015292;28;20182;-76
2021/12/25 01:55:32;;;;;;;18.17;15.13;;;3.60;99.90;;;;;;5015223;28;20174;-76
2021/12/25 01:58:00;;;;;;;16.37;14.53;;;3.60;99.90;;;;;;4997632;28;20194;-76
2021/12/25 02:00:42;;;;;;;17.30;14.53;;;3.60;99.90;;;;;;4997470;28;20176;-76
2021/12/25 02:03:10;;;;;;;18.73;14.37;;;3.60;99.90;;;;;;4991981;28;20175;-76
2021/12/25 02:05:36;;;;;;;19.73;15.57;;;3.40;99.90;;;;;;5015033;28;20168;-77
2021/12/25 02:08:02;;;;;;;16.00;13.43;;;3.40;99.90;;;;;;5015141;28;20193;-76
2021/12/25 02:10:28;;;;;;;16.10;14.13;;;3.30;99.90;;;;;;5014963;28;20177;-76
2021/12/25 02:12:54;;;;;;;17.37;13.27;;;3.30;99.90;;;;;;4997546;28;20170;-76
2021/12/25 02:15:23;;;;;;;18.50;14.70;;;3.40;99.90;;;;;;4997209;28;20658;-76
2021/12/25 02:18:13;;;;;;;20.23;15.63;;;3.40;99.90;;;;;;5006124;28;20567;-76
2021/12/25 02:21:09;;;;;;;19.17;15.17;;;3.50;99.90;;;;;;4997210;28;20664;-76
2021/12/25 02:23:27;;;;;;;20.20;14.90;;;3.40;99.90;;;;;;5014157;28;20322;-76
2021/12/25 02:25:56;;;;;;;23.00;16.53;;;3.40;99.90;;;;;;5014709;28;20170;-76
2021/12/25 02:28:23;;;;;;;26.07;16.80;;;3.50;99.90;;;;;;4983100;28;20201;-76
2021/12/25 02:30:51;;;;;;;25.20;17.30;;;3.40;99.90;;;;;;5011921;28;20247;-76
2021/12/25 02:33:17;;;;;;;21.10;16.03;;;3.50;99.90;;;;;;5011829;28;20179;-76
2021/12/25 02:35:44;;;;;;;21.90;16.73;;;3.50;99.90;;;;;;5001938;28;20194;-76
2021/12/25 02:38:10;;;;;;;18.90;16.20;;;3.40;99.90;;;;;;5014300;28;20284;-76
2021/12/25 02:40:36;;;;;;;20.60;15.97;;;3.40;99.90;;;;;;5005439;28;20173;-76
2021/12/25 02:43:03;;;;;;;18.70;14.50;;;3.40;99.90;;;;;;4996194;28;20228;-77
2021/12/25 02:45:29;;;;;;;17.67;14.83;;;3.40;99.90;;;;;;5014076;28;20704;-76
2021/12/25 02:47:56;;;;;;;18.73;14.63;;;3.20;99.90;;;;;;4992811;28;20300;-76
2021/12/25 02:50:28;;;;;;;19.70;15.17;;;3.10;99.90;;;;;;4996538;28;20645;-76
2021/12/25 02:52:55;;;;;;;22.07;16.57;;;3.00;99.90;;;;;;5014276;28;20167;-76
2021/12/25 02:55:21;;;;;;;17.10;14.77;;;2.90;99.90;;;;;;5014187;28;20183;-76
2021/12/25 02:57:51;;;;;;;20.47;15.77;;;2.80;99.90;;;;;;4995854;28;20269;-76
2021/12/25 03:00:29;;;;;;;18.03;14.73;;;2.90;99.90;;;;;;5013832;28;20232;-76
2021/12/25 03:02:55;;;;;;;19.03;15.23;;;3.00;99.90;;;;;;4995274;28;20227;-76
2021/12/25 03:05:21;;;;;;;20.97;15.50;;;3.10;99.90;;;;;;5010018;28;20175;-77
2021/12/25 03:07:47;;;;;;;22.23;16.43;;;3.10;99.90;;;;;;4992894;28;20201;-76
2021/12/25 03:10:15;;;;;;;19.77;16.13;;;3.20;99.90;;;;;;4999718;28;20198;-77
2021/12/25 03:13:04;;;;;;;19.67;15.87;;;3.30;99.90;;;;;;4980761;28;20205;-76
2021/12/25 03:15:41;;;;;;;20.40;15.73;;;3.30;99.90;;;;;;5007099;28;20183;-76
2021/12/25 03:18:07;;;;;;;23.33;15.87;;;3.40;99.90;;;;;;4985682;28;20330;-76
2021/12/25 03:20:33;;;;;;;20.63;15.73;;;3.40;99.90;;;;;;5013633;28;20252;-77
2021/12/25 03:22:59;;;;;;;21.93;16.63;;;3.40;99.90;;;;;;5008027;28;20638;-77
2021/12/25 03:25:25;;;;;;;19.33;15.50;;;3.40;99.90;;;;;;5005861;28;20259;-76
2021/12/25 03:27:51;;;;;;;18.50;15.00;;;3.30;99.90;;;;;;5012288;28;20199;-77
2021/12/25 03:30:21;;;;;;;19.77;15.90;;;3.20;99.90;;;;;;5010363;28;20237;-76
2021/12/25 03:32:47;;;;;;;20.90;15.80;;;3.00;99.90;;;;;;5003904;28;20184;-77
2021/12/25 03:35:13;;;;;;;19.73;15.40;;;3.00;99.90;;;;;;4992105;28;20178;-77
2021/12/25 03:37:38;;;;;;;18.83;14.27;;;2.90;99.90;;;;;;4990858;28;20238;-77
2021/12/25 03:40:05;;;;;;;22.67;15.63;;;2.90;99.90;;;;;;5012083;28;20164;-76
2021/12/25 03:42:30;;;;;;;17.57;14.93;;;2.90;99.90;;;;;;5012473;28;20185;-77
2021/12/25 03:44:56;;;;;;;20.30;15.20;;;3.00;99.90;;;;;;4994894;28;20178;-76
2021/12/25 03:47:30;;;;;;;19.87;15.67;;;3.00;99.90;;;;;;5013223;28;20207;-77
2021/12/25 03:58:21;;;;;;;22.37;16.80;;;3.10;99.90;;;;;;5013592;28;20276;-76
2021/12/25 04:00:49;;;;;;;19.77;16.03;;;3.40;99.90;;;;;;4995572;28;20651;-76
2021/12/25 04:03:23;;;;;;;21.60;16.30;;;3.20;99.90;;;;;;4983067;28;20195;-77
2021/12/25 04:05:49;;;;;;;20.07;16.07;;;3.20;99.90;;;;;;5013227;28;20183;-76
2021/12/25 04:08:19;;;;;;;21.13;15.53;;;3.30;99.90;;;;;;5013324;28;20197;-77
2021/12/25 04:10:46;;;;;;;19.53;15.30;;;3.30;99.90;;;;;;5017172;28;20195;-76
2021/12/25 04:13:16;;;;;;;22.17;16.60;;;3.30;99.90;;;;;;5017327;28;20643;-76
2021/12/25 04:15:43;;;;;;;20.20;15.07;;;3.30;99.90;;;;;;5017051;28;20260;-76
2021/12/25 04:18:09;;;;;;;22.63;14.77;;;3.20;99.90;;;;;;4999463;28;20668;-76
2021/12/25 04:20:36;;;;;;;22.93;16.33;;;3.10;99.90;;;;;;5015978;28;20175;-76
2021/12/25 04:23:07;;;;;;;18.33;14.97;;;3.10;99.90;;;;;;5016455;28;20172;-76
2021/12/25 04:25:35;;;;;;;19.90;14.90;;;3.00;99.90;;;;;;5015726;28;20173;-77
2021/12/25 04:28:14;;;;;;;21.57;16.07;;;3.00;99.90;;;;;;5014797;28;20246;-76
2021/12/25 05:05:46;;;;;;;32.87;20.40;;;3.30;99.90;;;;;;4997764;28;20666;-77
2021/12/25 05:08:12;;;;;;;30.90;20.17;;;3.20;99.90;;;;;;4980055;28;20201;-77
2021/12/25 05:10:37;;;;;;;31.23;20.93;;;3.20;99.90;;;;;;5015564;28;20184;-77
2021/12/25 05:13:03;;;;;;;28.00;20.20;;;3.10;99.90;;;;;;5016984;28;20184;-76
2021/12/25 05:15:29;;;;;;;30.57;20.03;;;3.20;99.90;;;;;;4997370;28;20267;-77
2021/12/25 05:17:54;;;;;;;29.40;20.20;;;3.20;99.90;;;;;;4998852;28;20194;-76
2021/12/25 05:20:21;;;;;;;27.40;18.67;;;3.20;99.90;;;;;;4997931;28;20549;-77
2021/12/25 05:22:47;;;;;;;24.40;17.93;;;3.30;99.90;;;;;;5015913;28;20183;-76
2021/12/25 05:25:13;;;;;;;27.20;18.43;;;3.30;99.90;;;;;;5016179;28;20186;-76
2021/12/25 05:27:38;;;;;;;23.03;16.33;;;3.30;99.90;;;;;;4997541;28;20203;-76
2021/12/25 05:30:05;;;;;;;22.57;16.30;;;3.30;99.90;;;;;;5015613;28;20203;-77
2021/12/25 05:32:30;;;;;;;20.67;16.77;;;3.20;99.90;;;;;;5012762;28;20195;-76
2021/12/25 05:34:56;;;;;;;21.20;16.17;;;3.20;99.90;;;;;;4998119;28;20227;-76
2021/12/25 05:37:21;;;;;;;26.00;18.07;;;3.20;99.90;;;;;;5014475;28;20197;-77
2021/12/25 05:39:50;;;;;;;22.07;17.40;;;3.30;99.90;;;;;;5002165;28;20258;-76
2021/12/25 05:42:17;;;;;;;23.00;16.50;;;3.30;99.90;;;;;;5015426;28;20173;-76
2021/12/25 05:44:43;;;;;;;22.17;17.73;;;3.40;99.90;;;;;;5015607;28;20186;-76
2021/12/25 05:47:09;;;;;;;28.53;18.47;;;3.40;99.90;;;;;;5015081;28;20200;-76
2021/12/25 05:49:35;;;;;;;25.00;17.67;;;3.40;99.90;;;;;;5015736;28;20263;-76
2021/12/25 05:52:00;;;;;;;26.03;17.87;;;3.30;99.90;;;;;;5015275;28;20562;-76
2021/12/25 05:54:26;;;;;;;63.97;41.57;;;3.30;99.90;;;;;;5016179;28;20235;-76
2021/12/25 05:56:52;;;;;;;46.87;31.63;;;3.20;99.90;;;;;;4997490;28;20224;-76
2021/12/25 05:59:18;;;;;;;24.63;18.47;;;3.20;99.90;;;;;;5015197;28;20256;-76
2021/12/25 06:01:43;;;;;;;30.27;22.27;;;3.10;99.90;;;;;;5013482;28;20186;-77
2021/12/25 06:04:09;;;;;;;28.80;18.60;;;3.20;99.90;;;;;;5008343;28;20264;-76
2021/12/25 06:06:35;;;;;;;20.37;16.17;;;3.10;99.90;;;;;;5015013;28;20269;-76
2021/12/25 06:09:01;;;;;;;23.17;16.57;;;3.10;99.90;;;;;;5014974;28;20197;-76
2021/12/25 06:11:28;;;;;;;21.33;16.47;;;3.10;99.90;;;;;;5014879;28;20539;-76
2021/12/25 06:14:07;;;;;;;21.87;16.33;;;3.10;99.90;;;;;;5015162;28;20171;-76
2021/12/25 06:16:33;;;;;;;20.27;16.50;;;3.10;99.90;;;;;;4997184;28;20258;-76
2021/12/25 06:18:58;;;;;;;24.33;17.30;;;3.20;99.90;;;;;;5014879;28;20280;-76
2021/12/25 06:21:24;;;;;;;22.63;16.33;;;3.20;99.90;;;;;;5014747;28;20561;-77
2021/12/25 06:23:50;;;;;;;21.83;16.40;;;3.30;99.90;;;;;;4997229;28;20175;-76
2021/12/25 06:26:15;;;;;;;22.37;16.80;;;4.00;99.90;;;;;;5014989;28;20212;-76
2021/12/25 06:28:41;;;;;;;24.57;16.93;;;3.40;99.90;;;;;;4996962;28;20204;-76
2021/12/25 06:31:06;;;;;;;20.97;16.80;;;3.40;99.90;;;;;;5013552;28;20683;-76
2021/12/25 06:33:32;;;;;;;25.30;17.53;;;3.40;99.90;;;;;;5000961;28;20199;-76
2021/12/25 06:35:58;;;;;;;22.20;16.87;;;3.30;99.90;;;;;;4996929;28;20183;-76
2021/12/25 06:38:23;;;;;;;24.13;16.83;;;3.40;99.90;;;;;;5005787;28;20216;-75
2021/12/25 06:40:49;;;;;;;23.53;17.23;;;3.30;99.90;;;;;;5014454;28;20180;-76
2021/12/25 06:43:15;;;;;;;25.23;17.60;;;3.30;99.90;;;;;;5014581;28;20650;-77
2021/12/25 06:45:41;;;;;;;24.23;17.27;;;3.30;99.90;;;;;;5014089;28;20250;-76
2021/12/25 06:48:07;;;;;;;23.53;17.43;;;3.40;99.90;;;;;;5014243;28;20236;-77
2021/12/25 06:50:33;;;;;;;21.90;16.50;;;3.50;99.90;;;;;;4996796;28;20275;-76
2021/12/25 06:52:58;;;;;;;25.40;18.00;;;3.50;99.90;;;;;;5014682;28;20197;-76
2021/12/25 06:55:24;;;;;;;29.37;18.97;;;3.50;99.90;;;;;;5014360;28;20308;-76
2021/12/25 06:57:55;;;;;;;27.37;18.40;;;3.40;99.90;;;;;;5000179;28;20188;-76
2021/12/25 07:00:22;;;;;;;26.90;18.87;;;3.30;99.90;;;;;;4992359;28;20239;-78
2021/12/25 07:02:48;;;;;;;23.07;17.73;;;3.30;99.90;;;;;;4987686;28;20188;-77
2021/12/25 07:05:14;;;;;;;24.87;18.40;;;3.30;99.90;;;;;;5014328;28;20261;-77
2021/12/25 07:07:40;;;;;;;30.43;20.60;;;3.20;99.90;;;;;;4996972;28;20201;-78
2021/12/25 07:10:07;;;;;;;25.87;19.10;;;3.20;99.90;;;;;;5014812;28;20176;-77
2021/12/25 07:12:36;;;;;;;25.83;18.93;;;3.20;99.90;;;;;;5014993;28;20212;-79
2021/12/25 07:15:06;;;;;;;34.33;19.57;;;3.20;99.90;;;;;;5015169;28;20165;-78
2021/12/25 07:17:32;;;;;;;37.57;20.57;;;3.70;99.90;;;;;;5014514;28;20247;-77
2021/12/25 07:19:59;;;;;;;35.07;20.70;;;4.30;99.90;;;;;;4996127;28;20178;-76
2021/12/25 07:22:25;;;;;;;37.60;21.90;;;4.70;99.90;;;;;;5013096;28;20224;-78
2021/12/25 07:24:50;;;;;;;36.13;20.00;;;4.90;99.90;;;;;;5010863;28;20659;-78
2021/12/25 07:27:16;;;;;;;36.60;20.87;;;5.00;99.90;;;;;;5008218;28;20224;-77
2021/12/25 07:29:42;;;;;;;30.57;20.00;;;5.10;99.90;;;;;;5013174;28;20216;-75
2021/12/25 07:32:07;;;;;;;30.70;19.03;;;5.10;99.90;;;;;;4981790;28;20259;-78
2021/12/25 07:34:33;;;;;;;32.70;19.40;;;5.10;99.90;;;;;;4988819;28;20184;-78
2021/12/25 07:37:00;;;;;;;29.37;19.03;;;5.00;99.90;;;;;;5008044;28;20253;-77
2021/12/25 07:39:26;;;;;;;33.80;19.57;;;5.20;99.90;;;;;;4987692;28;20226;-77
2021/12/25 07:41:52;;;;;;;32.40;19.27;;;5.20;99.90;;;;;;5004073;28;20178;-77
2021/12/25 07:44:17;;;;;;;33.07;19.70;;;5.30;99.90;;;;;;5003752;28;20190;-77
2021/12/25 07:46:45;;;;;;;27.90;18.03;;;5.20;99.90;;;;;;4986645;28;20653;-77
2021/12/25 07:49:16;;;;;;;30.67;18.93;;;5.30;99.90;;;;;;4987086;28;20227;-77
2021/12/25 07:51:42;;;;;;;30.10;18.93;;;5.30;99.90;;;;;;5011586;28;20665;-76
2021/12/25 07:54:09;;;;;;;36.80;20.77;;;5.30;99.90;;;;;;5011407;28;20202;-76
2021/12/25 07:56:35;;;;;;;27.30;19.67;;;5.20;99.90;;;;;;5010076;28;20171;-76
2021/12/25 07:59:01;;;;;;;24.10;18.37;;;5.10;99.90;;;;;;4996579;28;20191;-77
2021/12/25 08:01:27;;;;;;;26.47;18.47;;;4.80;99.90;;;;;;5008016;28;20181;-77
2021/12/25 08:03:52;;;;;;;33.50;21.00;;;4.70;99.90;;;;;;5005520;28;20186;-78
2021/12/25 08:06:18;;;;;;;28.27;19.27;;;4.50;99.90;;;;;;5013479;28;20182;-75
2021/12/25 08:08:44;;;;;;;32.67;21.30;;;4.60;99.90;;;;;;4988385;28;20237;-77
2021/12/25 08:11:10;;;;;;;29.17;20.20;;;4.50;99.90;;;;;;5001599;28;20208;-77
2021/12/25 08:13:39;;;;;;;29.50;19.83;;;4.50;99.90;;;;;;5009159;28;20724;-78
2021/12/25 08:16:04;;;;;;;28.67;20.97;;;4.40;99.90;;;;;;5012643;28;20178;-78
2021/12/25 08:18:31;;;;;;;35.37;22.67;;;4.40;99.90;;;;;;4996382;28;20223;-78
2021/12/25 08:20:57;;;;;;;31.20;20.83;;;4.40;99.90;;;;;;5011109;28;20174;-77
2021/12/25 08:23:23;;;;;;;33.00;22.33;;;4.50;99.90;;;;;;5013784;28;20174;-77
2021/12/25 08:25:48;;;;;;;22.67;17.60;;;4.50;99.90;;;;;;5012924;28;20696;-78
2021/12/25 08:28:14;;;;;;;29.27;18.93;;;4.50;99.90;;;;;;5012317;28;20246;-78
2021/12/25 08:30:40;;;;;;;23.73;18.53;;;4.50;99.90;;;;;;5012039;28;20176;-77
2021/12/25 08:33:05;;;;;;;30.80;19.47;;;4.40;99.90;;;;;;5006382;28;20187;-78
2021/12/25 08:35:32;;;;;;;28.93;19.93;;;4.40;99.90;;;;;;5010177;28;20547;-78
2021/12/25 08:37:58;;;;;;;30.93;19.80;;;4.40;99.90;;;;;;5002543;28;20704;-77
2021/12/25 08:40:25;;;;;;;26.40;19.83;;;4.40;99.90;;;;;;5007096;28;20255;-76
2021/12/25 08:42:56;;;;;;;33.03;20.83;;;4.40;99.90;;;;;;5004707;28;20180;-76
2021/12/25 08:48:13;;;;;;;26.80;18.70;;;4.50;99.90;;;;;;4992432;28;20222;-79
2021/12/25 08:50:43;;;;;;;29.13;19.83;;;4.60;99.90;;;;;;4966529;28;20177;-77
2021/12/25 08:53:08;;;;;;;30.37;19.57;;;4.60;99.90;;;;;;5007443;28;20703;-77
2021/12/25 08:55:34;;;;;;;36.93;25.43;;;4.60;99.90;;;;;;4995015;28;20270;-77
2021/12/25 08:58:00;;;;;;;43.60;27.90;;;4.70;99.90;;;;;;5013551;28;20679;-76
2021/12/25 09:00:26;;;;;;;40.17;27.17;;;4.80;99.90;;;;;;5013411;28;20181;-78
2021/12/25 09:02:52;;;;;;;48.67;30.17;;;4.80;99.90;;;;;;5005420;28;20237;-77
2021/12/25 09:05:18;;;;;;;39.57;23.73;;;4.80;99.90;;;;;;5015996;28;20200;-78
2021/12/25 09:07:43;;;;;;;1252.17;655.37;;;4.80;99.90;;;;;;4998420;28;20254;-78
2021/12/25 09:10:09;;;;;;;700.17;438.77;;;4.90;99.90;;;;;;5016109;28;20216;-79
2021/12/25 09:12:40;;;;;;;92.03;39.93;;;5.00;99.90;;;;;;4989588;28;20205;-77
2021/12/25 09:15:06;;;;;;;67.40;31.83;;;5.00;99.90;;;;;;4993177;28;20182;-77
2021/12/25 09:17:32;;;;;;;33.73;20.73;;;5.10;99.90;;;;;;4986508;28;20215;-77
2021/12/25 09:19:57;;;;;;;31.80;21.37;;;5.10;99.90;;;;;;4994267;28;20193;-78
2021/12/25 09:22:23;;;;;;;28.73;19.63;;;5.00;99.90;;;;;;4978249;28;20679;-77
2021/12/25 09:24:49;;;;;;;28.53;19.73;;;5.00;99.90;;;;;;4986316;28;20246;-78
2021/12/25 09:27:14;;;;;;;29.13;19.37;;;5.00;99.90;;;;;;4990057;28;20207;-77
2021/12/25 09:29:40;;;;;;;30.60;19.83;;;5.00;99.90;;;;;;5010178;28;20185;-77
2021/12/25 09:32:06;;;;;;;28.67;20.27;;;5.10;99.90;;;;;;4980050;28;20198;-77
2021/12/25 09:34:35;;;;;;;28.77;21.40;;;5.10;99.90;;;;;;4987130;28;20183;-78
2021/12/25 09:37:00;;;;;;;35.50;23.97;;;5.20;99.90;;;;;;4990377;28;20194;-78
2021/12/25 09:39:26;;;;;;;38.53;25.20;;;5.20;99.90;;;;;;5001522;28;20178;-77
2021/12/25 09:41:52;;;;;;;34.77;23.43;;;5.20;99.90;;;;;;5000504;28;20180;-78
2021/12/25 09:44:18;;;;;;;33.53;23.27;;;5.30;99.90;;;;;;5002394;28;20178;-77
2021/12/25 09:46:46;;;;;;;42.60;26.93;;;5.30;99.90;;;;;;5012728;28;20208;-77
2021/12/25 09:49:12;;;;;;;47.00;29.67;;;5.20;99.90;;;;;;5010575;28;20226;-77
2021/12/25 09:51:38;;;;;;;47.90;28.67;;;5.30;99.90;;;;;;5001992;28;20567;-76
2021/12/25 09:54:08;;;;;;;47.10;27.87;;;5.30;99.90;;;;;;4994080;28;20181;-76
2021/12/25 09:56:36;;;;;;;42.80;26.40;;;5.40;99.90;;;;;;4996794;28;20171;-77
2021/12/25 09:59:03;;;;;;;41.10;25.00;;;5.50;99.90;;;;;;5001916;28;20252;-77
2021/12/25 10:01:48;;;;;;;37.47;24.27;;;5.50;99.90;;;;;;4987797;28;20226;-77
2021/12/25 10:04:37;;;;;;;38.10;25.30;;;5.40;99.90;;;;;;5007600;28;20546;-77
2021/12/25 10:07:22;;;;;;;41.30;23.53;;;5.50;99.90;;;;;;4969282;28;20245;-77
2021/12/25 10:09:59;;;;;;;34.43;21.37;;;5.50;99.90;;;;;;4995110;28;20178;-78
2021/12/25 10:12:40;;;;;;;31.43;21.73;;;5.60;99.90;;;;;;4991780;28;20611;-77
2021/12/25 10:15:10;;;;;;;37.13;22.40;;;5.70;99.90;;;;;;4993278;28;20631;-77
2021/12/25 10:17:48;;;;;;;34.13;22.43;;;5.70;99.90;;;;;;5014892;28;20197;-78
2021/12/25 10:20:20;;;;;;;31.63;20.83;;;5.70;99.90;;;;;;4991259;28;20182;-78
2021/12/25 10:23:09;;;;;;;46.03;28.90;;;5.80;99.90;;;;;;5014281;28;20635;-77
2021/12/25 10:25:45;;;;;;;56.83;33.60;;;5.80;99.90;;;;;;4996556;28;20179;-78
2021/12/25 10:33:35;;;;;;;45.97;30.17;;;5.80;99.90;;;;;;5276826;23;20215;-77
2021/12/25 10:36:07;;;;;;;42.67;28.57;;;5.90;99.90;;;;;;4992339;28;20183;-78
2021/12/25 10:38:34;;;;;;;45.40;29.27;;;5.90;99.90;;;;;;4995319;28;20673;-77
2021/12/25 10:41:19;;;;;;;39.03;26.63;;;6.00;99.90;;;;;;4995740;28;20190;-77
2021/12/25 10:43:47;;;;;;;43.23;27.70;;;6.20;99.90;;;;;;4995663;28;20190;-77
2021/12/25 10:46:12;;;;;;;40.50;26.47;;;6.20;99.90;;;;;;5040150;23;20223;-81
2021/12/25 10:48:38;;;;;;;38.80;24.93;;;6.20;99.90;;;;;;4975079;28;20186;-79
2021/12/25 10:51:04;;;;;;;38.73;24.63;;;6.20;99.90;;;;;;4990648;28;20211;-80
2021/12/25 10:53:42;;;;;;;39.37;25.53;;;6.20;99.90;;;;;;4984161;28;20177;-79
2021/12/25 10:56:14;;;;;;;37.50;23.80;;;6.20;99.90;;;;;;4980788;28;20671;-79
2021/12/25 10:58:42;;;;;;;36.40;23.30;;;6.30;99.90;;;;;;4973667;28;20176;-79
2021/12/25 11:01:12;;;;;;;31.53;21.47;;;6.30;99.90;;;;;;4981376;28;20260;-80
2021/12/25 11:03:40;;;;;;;36.13;23.03;;;6.30;99.90;;;;;;4981279;28;20180;-79
2021/12/25 11:06:26;;;;;;;33.07;22.83;;;6.20;99.90;;;;;;4964312;28;20202;-79
2021/12/25 11:08:51;;;;;;;34.10;22.27;;;6.10;99.90;;;;;;4980832;28;20188;-80
2021/12/25 11:11:20;;;;;;;33.83;23.50;;;6.20;99.90;;;;;;4981014;28;20290;-79
2021/12/25 11:13:53;;;;;;;38.07;24.17;;;6.20;99.90;;;;;;4964211;28;20203;-80
2021/12/25 11:16:23;;;;;;;34.90;20.67;;;6.30;99.90;;;;;;4962974;28;20210;-79
2021/12/25 11:18:53;;;;;;;34.27;22.90;;;6.30;99.90;;;;;;4963441;28;20168;-79
2021/12/25 11:21:19;;;;;;;31.63;21.20;;;6.30;99.90;;;;;;4976891;28;20550;-80
2021/12/25 11:23:46;;;;;;;25.00;19.77;;;6.50;99.90;;;;;;4978173;28;20195;-80
2021/12/25 11:26:14;;;;;;;27.13;20.07;;;7.20;99.90;;;;;;4980436;28;20291;-79
2021/12/25 11:28:44;;;;;;;22.03;15.47;;;6.50;99.90;;;;;;4980237;28;20183;-79
2021/12/25 11:31:10;;;;;;;20.87;14.03;;;6.60;99.90;;;;;;4963595;28;20312;-79
2021/12/25 11:33:37;;;;;;;19.23;13.60;;;6.50;99.90;;;;;;4963734;28;20663;-79
2021/12/25 11:36:03;;;;;;;18.23;13.33;;;6.60;99.90;;;;;;4981530;28;20207;-80
2021/12/25 11:38:29;;;;;;;14.37;11.60;;;6.60;99.90;;;;;;4961935;28;20652;-79
2021/12/25 11:41:04;;;;;;;17.43;12.33;;;6.90;99.90;;;;;;4963789;28;20184;-80
2021/12/25 11:43:40;;;;;;;13.20;11.17;;;6.90;99.90;;;;;;4961822;28;20671;-80
2021/12/25 11:46:08;;;;;;;16.73;9.87;;;6.90;99.90;;;;;;4980169;28;20207;-80
2021/12/25 11:48:35;;;;;;;12.37;10.17;;;6.90;99.90;;;;;;4963685;28;20176;-80
2021/12/25 11:51:02;;;;;;;12.90;10.17;;;7.00;99.90;;;;;;4961513;28;20581;-80
2021/12/25 11:53:53;;;;;;;12.83;11.23;;;6.90;99.90;;;;;;4953099;28;20196;-78
2021/12/25 11:58:59;;;;;;;12.37;11.07;;;6.80;99.90;;;;;;4969803;28;20191;-80
2021/12/25 12:01:31;;;;;;;12.10;9.47;;;6.80;99.90;;;;;;4961691;28;20196;-79
2021/12/25 12:04:11;;;;;;;11.30;10.03;;;6.80;99.90;;;;;;4972454;28;20640;-80
2021/12/25 12:06:46;;;;;;;11.33;9.27;;;6.90;99.90;;;;;;4980782;28;20200;-79
2021/12/25 12:09:19;;;;;;;10.27;9.23;;;6.90;99.90;;;;;;4965096;28;20186;-79
2021/12/25 12:11:49;;;;;;;10.10;9.07;;;6.90;99.90;;;;;;4982525;28;20213;-80
2021/12/25 12:14:22;;;;;;;13.50;10.13;;;6.90;99.90;;;;;;4962548;28;20603;-80
2021/12/25 12:16:57;;;;;;;10.83;9.30;;;7.00;99.90;;;;;;4981674;28;20308;-80
2021/12/25 12:19:36;;;;;;;11.23;9.63;;;6.90;99.90;;;;;;4963146;28;20164;-80
2021/12/25 12:22:50;;;;;;;11.47;10.30;;;6.80;99.90;;;;;;4961299;28;20182;-79
2021/12/25 12:27:41;;;;;;;10.53;9.53;;;6.70;99.90;;;;;;4981199;28;20192;-80
2021/12/25 12:30:10;;;;;;;10.77;9.70;;;6.70;99.90;;;;;;4963536;28;20203;-78
2021/12/25 12:32:46;;;;;;;9.87;8.87;;;6.70;99.90;;;;;;4977312;28;20679;-78
2021/12/25 12:35:36;;;;;;;10.70;9.03;;;6.70;99.90;;;;;;4966205;28;20180;-80
2021/12/25 12:38:27;;;;;;;11.27;8.80;;;6.70;99.90;;;;;;4983892;28;20666;-79
2021/12/25 12:41:24;;;;;;;10.77;9.67;;;6.70;99.90;;;;;;4965005;28;20176;-79
2021/12/25 12:44:04;;;;;;;11.10;10.10;;;6.70;99.90;;;;;;4967831;28;20196;-79
2021/12/25 12:46:48;;;;;;;11.13;9.77;;;6.80;99.90;;;;;;4984389;28;20288;-78
2021/12/25 12:49:21;;;;;;;10.47;9.47;;;6.80;99.90;;;;;;4983901;28;20272;-78
2021/12/25 12:52:08;;;;;;;9.70;8.90;;;6.70;99.90;;;;;;4971408;28;20207;-79
2021/12/25 12:54:46;;;;;;;9.43;8.53;;;6.80;99.90;;;;;;4967459;28;20699;-79
2021/12/25 12:57:20;;;;;;;9.57;8.60;;;6.80;99.90;;;;;;4963854;28;20785;-79
2021/12/25 12:59:49;;;;;;;9.03;8.20;;;6.90;99.90;;;;;;4963312;29;20169;-79
2021/12/25 13:02:16;;;;;;;8.77;7.90;;;6.90;99.90;;;;;;4942892;29;20185;-79
2021/12/25 13:04:49;;;;;;;10.73;8.53;;;6.90;99.90;;;;;;4974019;28;20267;-78
2021/12/25 13:07:18;;;;;;;9.50;8.60;;;6.90;99.90;;;;;;4979488;28;20205;-78
2021/12/25 13:10:09;;;;;;;8.80;8.00;;;7.00;99.90;;;;;;4962194;28;20185;-78
2021/12/25 13:12:44;;;;;;;9.70;8.80;;;7.00;99.90;;;;;;4963223;28;20295;-79
2021/12/25 13:15:15;;;;;;;9.87;8.97;;;7.00;99.90;;;;;;4979714;28;20164;-79
2021/12/25 13:17:52;;;;;;;9.53;8.67;;;7.00;99.90;;;;;;4962064;28;20169;-79
2021/12/25 13:20:19;;;;;;;10.00;9.00;;;6.90;99.90;;;;;;4967066;28;20173;-79
2021/12/25 13:22:56;;;;;;;9.37;8.53;;;7.00;99.90;;;;;;4964135;28;20629;-79
2021/12/25 13:31:23;;;;;;;9.43;8.57;;;7.00;99.90;;;;;;5015692;28;20241;-77
2021/12/25 13:34:05;;;;;;;10.07;8.50;;;7.00;99.90;;;;;;5024841;28;20174;-79
2021/12/25 13:36:33;;;;;;;9.53;8.53;;;7.00;99.90;;;;;;5004500;28;20182;-79
2021/12/25 13:39:08;;;;;;;9.27;7.97;;;7.00;99.90;;;;;;5017303;28;20203;-76
2021/12/25 13:41:41;;;;;;;9.90;8.57;;;7.00;99.90;;;;;;5016926;28;20174;-77
2021/12/25 13:44:24;;;;;;;9.20;8.30;;;7.00;99.90;;;;;;5007769;28;20182;-78
2021/12/25 13:46:55;;;;;;;9.10;8.30;;;7.00;99.90;;;;;;5011641;28;20182;-78
2021/12/25 13:49:34;;;;;;;8.93;8.13;;;7.40;99.90;;;;;;5009801;28;20217;-78
2021/12/25 13:52:09;;;;;;;9.63;8.07;;;7.00;99.90;;;;;;4994828;28;20297;-76
2021/12/25 13:54:37;;;;;;;8.13;7.33;;;7.10;99.90;;;;;;5015562;28;20193;-77
2021/12/25 13:57:03;;;;;;;8.73;7.90;;;7.10;99.90;;;;;;5014162;28;20534;-77
2021/12/25 13:59:32;;;;;;;9.57;8.57;;;7.10;99.90;;;;;;4997584;28;20198;-77
2021/12/25 14:02:16;;;;;;;9.17;8.27;;;7.10;99.90;;;;;;4995677;28;20254;-77
2021/12/25 14:04:47;;;;;;;9.03;8.13;;;7.20;99.90;;;;;;5014314;28;20621;-76
2021/12/25 14:07:16;;;;;;;9.43;8.53;;;7.20;99.90;;;;;;5014293;28;20183;-76
2021/12/25 14:10:04;;;;;;;9.17;8.23;;;7.10;99.90;;;;;;4997004;28;20209;-75
2021/12/25 14:12:30;;;;;;;9.23;7.80;;;7.20;99.90;;;;;;4996326;28;20587;-79
2021/12/25 14:14:57;;;;;;;9.43;8.07;;;7.30;99.90;;;;;;5013712;28;20175;-77
2021/12/25 14:17:23;;;;;;;9.43;8.37;;;7.40;99.90;;;;;;5014105;28;20182;-77
2021/12/25 14:19:49;;;;;;;8.77;7.87;;;7.50;99.90;;;;;;5014068;28;20187;-77